Time;durP1;ratioP1;P1;durP2;ratioP2;P2;SDS_P1;SDS_P2;PMS_P1;PMS_P2;Temp;Humidity;BMP_temperature;BMP_pressure;BME280_temperature;BME280_humidity;BME280_pressure;Samples;Min_cycle;Max_cycle;Signal;HPM_P1;HPM_P2
2021/11/24 00:01:40;;;;;;;13.55;6.47;;;;;;;5.25;83.37;101716.91;1722418;83;21089;-83
2021/11/24 00:04:06;;;;;;;14.58;6.72;;;;;;;5.28;83.33;101723.12;1722297;83;21126;-83
2021/11/24 00:06:35;;;;;;;11.93;6.12;;;;;;;5.30;83.27;101726.73;1721981;83;21054;-83
2021/11/24 00:09:02;;;;;;;12.23;6.50;;;;;;;5.34;83.27;101717.86;1721860;82;21763;-83
2021/11/24 00:11:32;;;;;;;9.90;5.90;;;;;;;5.34;83.16;101715.66;1719854;83;21552;-83
2021/11/24 00:13:58;;;;;;;12.45;5.65;;;;;;;5.37;83.14;101715.86;1719702;83;21106;-83
2021/11/24 00:16:25;;;;;;;13.70;6.17;;;;;;;5.40;83.13;101714.72;1720263;83;21105;-84
2021/11/24 00:18:51;;;;;;;15.53;6.22;;;;;;;5.42;83.06;101710.50;1720141;83;21063;-83
2021/11/24 00:21:20;;;;;;;9.98;5.45;;;;;;;5.45;83.02;101706.78;1694862;83;21106;-84
2021/11/24 00:23:49;;;;;;;10.88;5.83;;;;;;;5.48;82.96;101703.44;1720128;83;21134;-84
2021/11/24 00:26:16;;;;;;;13.10;5.55;;;;;;;5.48;82.92;101705.67;1720319;83;21093;-84
2021/11/24 00:28:43;;;;;;;15.58;6.15;;;;;;;5.48;82.82;101706.98;1720186;83;21082;-83
2021/11/24 00:31:10;;;;;;;10.88;6.30;;;;;;;5.50;82.78;101712.27;1720214;83;21087;-84
2021/11/24 00:36:29;;;;;;;14.55;5.45;;;;;;;5.54;82.74;101696.00;1719928;83;21505;-84
2021/11/24 00:41:43;;;;;;;12.20;5.80;;;;;;;5.57;82.68;101694.45;1720255;82;21090;-83
2021/11/24 00:44:13;;;;;;;15.28;5.58;;;;;;;5.59;82.68;101698.46;1720185;82;21349;-84
2021/11/24 00:46:39;;;;;;;10.03;5.22;;;;;;;5.59;82.61;101693.23;1720401;83;21874;-83
2021/11/24 00:49:08;;;;;;;13.40;5.33;;;;;;;5.60;82.60;101696.36;1720437;83;21058;-84
2021/11/24 00:51:36;;;;;;;11.50;4.70;;;;;;;5.62;82.59;101698.66;1719887;83;21063;-84
2021/11/24 00:54:05;;;;;;;10.78;5.20;;;;;;;5.61;82.60;101693.84;1719569;83;21068;-83
2021/11/24 00:56:32;;;;;;;9.10;4.72;;;;;;;5.63;82.60;101694.84;1720457;83;21598;-83
2021/11/24 00:58:58;;;;;;;10.30;5.55;;;;;;;5.64;82.55;101689.20;1720455;83;21710;-83
2021/11/24 01:01:28;;;;;;;13.48;6.12;;;;;;;5.65;82.58;101689.30;1719868;83;21070;-83
2021/11/24 01:03:54;;;;;;;11.73;5.40;;;;;;;5.64;82.53;101690.09;1720251;83;21007;-79
2021/11/24 01:06:21;;;;;;;14.63;5.92;;;;;;;5.65;82.60;101684.48;1720058;83;21078;-83
2021/11/24 01:08:48;;;;;;;16.57;6.20;;;;;;;5.69;82.59;101690.77;1720165;83;21074;-84
2021/11/24 01:11:19;;;;;;;14.13;6.55;;;;;;;5.69;82.58;101690.77;1716546;83;21857;-83
2021/11/24 01:13:44;;;;;;;18.67;6.17;;;;;;;5.71;82.63;101687.45;1715762;83;21142;-83
2021/11/24 01:16:11;;;;;;;11.97;5.85;;;;;;;5.73;82.61;101688.45;1716753;83;21762;-83
2021/11/24 01:18:39;;;;;;;13.70;6.40;;;;;;;5.73;82.62;101690.17;1716734;83;21086;-83
2021/11/24 01:21:06;;;;;;;17.67;6.00;;;;;;;5.74;82.60;101686.73;1716859;83;22303;-83
2021/11/24 01:23:33;;;;;;;15.75;6.35;;;;;;;5.72;82.52;101687.05;1716659;83;22961;-83
2021/11/24 01:25:59;;;;;;;13.88;6.67;;;;;;;5.68;82.45;101685.06;1716813;83;21075;-83
2021/11/24 01:28:26;;;;;;;15.28;5.70;;;;;;;5.64;82.50;101685.28;1716786;83;21075;-83
2021/11/24 01:30:53;;;;;;;13.10;6.17;;;;;;;5.64;82.69;101686.17;1716933;83;21079;-83
2021/11/24 01:33:20;;;;;;;14.73;6.55;;;;;;;5.67;82.77;101682.87;1716644;83;21145;-83
2021/11/24 01:35:48;;;;;;;13.75;6.50;;;;;;;5.68;82.74;101672.89;1716482;83;21086;-82
2021/11/24 01:38:17;;;;;;;16.55;7.37;;;;;;;5.70;82.80;101670.38;1687627;83;21106;-82
2021/11/24 01:40:44;;;;;;;13.38;6.53;;;;;;;5.71;82.82;101665.67;1716879;82;21078;-82
2021/11/24 01:43:15;;;;;;;17.02;7.10;;;;;;;5.74;82.85;101667.13;1716779;83;22302;-83
2021/11/24 01:45:40;;;;;;;13.00;6.90;;;;;;;5.75;82.84;101666.34;1716684;83;21187;-83
2021/11/24 01:48:07;;;;;;;11.18;6.22;;;;;;;5.76;82.85;101670.73;1716954;83;21751;-83
2021/11/24 01:50:37;;;;;;;10.23;6.12;;;;;;;5.79;82.95;101664.39;1716812;83;21078;-83
2021/11/24 01:53:02;;;;;;;15.68;6.33;;;;;;;5.82;82.94;101668.51;1716830;83;21592;-83
2021/11/24 01:55:29;;;;;;;13.20;6.20;;;;;;;5.84;82.93;101663.86;1717085;83;22315;-83
2021/11/24 01:57:59;;;;;;;11.00;6.25;;;;;;;5.84;82.91;101657.33;1716975;83;21643;-82
2021/11/24 02:00:28;;;;;;;14.35;6.53;;;;;;;5.85;82.95;101666.95;1717321;83;21785;-83
2021/11/24 02:02:58;;;;;;;11.20;6.53;;;;;;;5.87;83.01;101663.53;1717144;83;21070;-82
2021/11/24 02:05:27;;;;;;;12.50;6.35;;;;;;;5.89;83.03;101659.30;1716980;83;21138;-83
2021/11/24 02:07:54;;;;;;;10.50;5.47;;;;;;;5.92;83.05;101658.19;1717001;83;21083;-83
2021/11/24 02:10:21;;;;;;;13.95;6.72;;;;;;;5.93;83.04;101645.21;1718313;83;21078;-83
2021/11/24 02:12:49;;;;;;;13.15;6.05;;;;;;;5.89;83.04;101630.55;1720411;83;21804;-83
2021/11/24 02:15:18;;;;;;;9.35;5.78;;;;;;;6.01;83.12;101649.61;1720087;83;21078;-83
2021/11/24 02:17:45;;;;;;;8.50;5.70;;;;;;;6.07;83.08;101650.37;1720280;83;20984;-84
2021/11/24 02:20:21;;;;;;;14.85;6.47;;;;;;;6.09;83.00;101648.74;1720240;83;21561;-84
2021/11/24 02:22:47;;;;;;;9.00;5.50;;;;;;;6.11;83.03;101636.23;1720361;83;21110;-83
2021/11/24 02:25:18;;;;;;;9.93;5.62;;;;;;;6.14;82.97;101644.69;1720361;83;21699;-83
2021/11/24 02:27:47;;;;;;;9.05;5.15;;;;;;;6.16;82.96;101639.13;1720101;83;21058;-84
2021/11/24 02:30:14;;;;;;;8.83;5.78;;;;;;;6.18;82.89;101634.89;1720341;83;21086;-84
2021/11/24 02:32:40;;;;;;;7.60;4.58;;;;;;;6.16;82.91;101625.65;1720363;83;21133;-84
2021/11/24 02:35:07;;;;;;;9.65;4.90;;;;;;;6.21;82.97;101624.59;1720248;82;21089;-84
2021/11/24 02:37:34;;;;;;;8.75;5.30;;;;;;;6.21;82.87;101621.59;1720557;83;21776;-83
2021/11/24 02:40:01;;;;;;;9.38;5.42;;;;;;;6.23;82.88;101605.58;1720497;82;21070;-83
2021/11/24 02:42:31;;;;;;;7.35;5.12;;;;;;;6.21;82.84;101604.59;1720126;83;21360;-83
2021/11/24 02:44:56;;;;;;;7.70;5.05;;;;;;;6.22;82.84;101612.03;1719957;83;21061;-83
2021/11/24 02:47:25;;;;;;;7.22;4.72;;;;;;;6.19;82.88;101611.45;1720035;83;21058;-83
2021/11/24 02:49:53;;;;;;;10.78;4.95;;;;;;;6.18;82.89;101616.59;1720161;83;22126;-84
2021/11/24 02:52:21;;;;;;;6.45;4.58;;;;;;;6.18;82.93;101608.75;1720103;83;21281;-83
2021/11/24 02:55:01;;;;;;;6.72;4.70;;;;;;;6.19;82.97;101610.16;1720030;83;21376;-84
2021/11/24 02:57:39;;;;;;;7.50;5.00;;;;;;;6.19;82.98;101607.92;1719400;83;21106;-83
2021/11/24 03:00:16;;;;;;;8.25;4.92;;;;;;;6.18;82.94;101599.60;1719206;83;21066;-83
2021/11/24 03:02:45;;;;;;;8.63;4.60;;;;;;;6.19;83.05;101597.46;1697237;83;21400;-83
2021/11/24 03:05:12;;;;;;;6.33;4.30;;;;;;;6.20;83.07;101588.82;1720320;83;21074;-83
2021/11/24 03:07:39;;;;;;;6.25;4.25;;;;;;;6.20;83.03;101591.44;1670949;83;21086;-83
2021/11/24 03:10:06;;;;;;;5.80;3.92;;;;;;;6.20;83.14;101583.17;1719687;83;21168;-83
2021/11/24 03:12:34;;;;;;;6.87;3.80;;;;;;;6.23;83.14;101585.05;1716721;83;21078;-82
2021/11/24 03:15:06;;;;;;;6.92;3.87;;;;;;;6.23;83.19;101582.44;1716937;83;21819;-83
2021/11/24 03:17:37;;;;;;;6.40;3.58;;;;;;;6.24;83.22;101576.41;1717029;83;21119;-82
2021/11/24 03:20:05;;;;;;;5.30;3.40;;;;;;;6.25;83.22;101570.76;1716938;82;21050;-83
2021/11/24 03:22:34;;;;;;;6.28;3.33;;;;;;;6.25;83.28;101572.99;1717040;83;21090;-83
2021/11/24 03:25:01;;;;;;;5.70;3.47;;;;;;;6.26;83.38;101573.47;1717315;83;21616;-84
2021/11/24 03:27:31;;;;;;;5.67;3.15;;;;;;;6.28;83.34;101570.95;1717018;83;21701;-85
2021/11/24 03:29:59;;;;;;;4.62;3.60;;;;;;;6.30;83.39;101571.51;1716083;83;21517;-84
2021/11/24 03:32:30;;;;;;;4.95;3.60;;;;;;;6.33;83.44;101565.57;1716981;83;21122;-83
2021/11/24 03:34:55;;;;;;;5.40;3.62;;;;;;;6.35;83.45;101571.78;1716711;83;21059;-83
2021/11/24 03:37:24;;;;;;;4.42;3.15;;;;;;;6.35;83.44;101573.98;1716944;83;21885;-83
2021/11/24 03:39:51;;;;;;;3.85;3.25;;;;;;;6.37;83.48;101569.73;1717104;83;21768;-83
2021/11/24 03:42:17;;;;;;;4.47;3.70;;;;;;;6.39;83.46;101569.82;1717039;83;21074;-83
2021/11/24 03:44:44;;;;;;;5.25;3.80;;;;;;;6.39;83.46;101570.71;1716968;83;21703;-84
2021/11/24 03:47:16;;;;;;;5.30;3.70;;;;;;;6.41;83.48;101566.46;1716498;83;21090;-83
2021/11/24 03:49:42;;;;;;;5.45;3.83;;;;;;;6.42;83.49;101568.28;1716992;83;21134;-82
2021/11/24 03:52:09;;;;;;;4.53;3.27;;;;;;;6.45;83.53;101573.18;1717102;83;23043;-83
2021/11/24 03:54:36;;;;;;;6.40;3.77;;;;;;;6.49;83.65;101572.52;1716798;83;21047;-83
2021/11/24 03:57:03;;;;;;;5.25;3.60;;;;;;;6.52;83.67;101572.70;1716851;83;21556;-83
2021/11/24 03:59:30;;;;;;;5.90;3.62;;;;;;;6.56;83.63;101578.17;1716613;83;21109;-83
2021/11/24 04:01:57;;;;;;;5.50;3.50;;;;;;;6.58;83.64;101572.61;1717053;83;21067;-84
2021/11/24 04:04:29;;;;;;;5.37;3.60;;;;;;;6.59;83.54;101570.50;1716113;83;21059;-84
2021/11/24 04:06:54;;;;;;;7.47;4.42;;;;;;;6.59;83.48;101563.96;1716965;83;21543;-84
2021/11/24 04:09:21;;;;;;;6.30;3.85;;;;;;;6.57;83.43;101551.63;1717451;83;21054;-84
2021/11/24 04:11:50;;;;;;;9.88;5.60;;;;;;;6.54;83.34;101547.53;1721300;83;21067;-85
2021/11/24 04:14:16;;;;;;;8.28;4.50;;;;;;;6.52;83.35;101546.13;1722601;83;21520;-84
2021/11/24 04:16:45;;;;;;;6.60;4.35;;;;;;;6.50;83.40;101557.34;1722013;83;21066;-84
2021/11/24 04:19:15;;;;;;;5.95;3.90;;;;;;;6.48;83.39;101558.56;1722809;82;21066;-84
2021/11/24 04:21:40;;;;;;;9.90;4.35;;;;;;;6.47;83.49;101551.52;1722482;83;21089;-84
2021/11/24 04:24:07;;;;;;;7.92;4.00;;;;;;;6.51;83.55;101556.09;1722997;83;21031;-84
2021/11/24 04:26:35;;;;;;;8.20;4.00;;;;;;;6.54;83.63;101556.69;1695348;83;21070;-85
2021/11/24 04:29:02;;;;;;;6.08;4.30;;;;;;;6.57;83.58;101556.86;1722872;83;21759;-85
2021/11/24 04:31:29;;;;;;;6.03;3.62;;;;;;;6.57;83.52;101551.21;1722886;82;21774;-84
2021/11/24 04:33:56;;;;;;;5.97;3.95;;;;;;;6.57;83.52;101555.14;1722667;83;21564;-83
2021/11/24 04:36:23;;;;;;;7.70;4.72;;;;;;;6.60;83.57;101561.82;1722591;82;21639;-83
2021/11/24 04:38:52;;;;;;;7.37;3.62;;;;;;;6.61;83.62;101551.86;1722568;83;21110;-83
2021/11/24 04:41:21;;;;;;;5.08;3.47;;;;;;;6.64;83.62;101555.45;1722441;83;21732;-83
2021/11/24 04:43:50;;;;;;;5.65;3.40;;;;;;;6.66;83.65;101556.44;1722259;83;21081;-83
2021/11/24 04:46:16;;;;;;;7.90;3.30;;;;;;;6.68;83.72;101557.41;1722276;83;21059;-81
2021/11/24 04:48:43;;;;;;;6.00;3.37;;;;;;;6.69;83.75;101556.19;1722643;83;21122;-83
2021/11/24 04:51:12;;;;;;;6.33;3.15;;;;;;;6.70;83.67;101556.70;1722625;82;21133;-84
2021/11/24 04:53:39;;;;;;;8.25;3.47;;;;;;;6.71;83.74;101543.20;1722461;83;21941;-81
2021/11/24 04:56:06;;;;;;;6.95;3.58;;;;;;;6.71;83.74;101541.89;1722363;82;21995;-81
2021/11/24 04:58:36;;;;;;;10.80;3.45;;;;;;;6.72;83.78;101543.67;1722098;82;21098;-80
2021/11/24 05:01:04;;;;;;;6.00;3.27;;;;;;;6.74;83.80;101549.92;1721920;83;21110;-80
2021/11/24 05:03:29;;;;;;;7.97;3.25;;;;;;;6.73;83.79;101539.84;1722401;83;20999;-81
2021/11/24 05:05:58;;;;;;;10.05;3.15;;;;;;;6.73;83.78;101545.07;1722575;83;21765;-81
2021/11/24 05:08:25;;;;;;;5.17;3.40;;;;;;;6.73;83.86;101546.38;1722304;83;21076;-81
2021/11/24 05:10:53;;;;;;;9.13;3.27;;;;;;;6.71;83.76;101538.86;1692901;83;21728;-80
2021/11/24 05:13:20;;;;;;;6.62;3.20;;;;;;;6.70;83.82;101542.31;1716799;82;21600;-80
2021/11/24 05:15:47;;;;;;;7.25;3.12;;;;;;;6.72;83.84;101541.05;1716899;83;21219;-80
2021/11/24 05:18:27;;;;;;;4.62;2.80;;;;;;;6.68;83.80;101543.95;1716692;82;21752;-79
2021/11/24 05:20:49;;;;;;;5.40;2.58;;;;;;;6.67;83.83;101546.06;1690215;83;21111;-77
2021/11/24 05:23:18;;;;;;;6.58;2.80;;;;;;;6.67;83.91;101547.78;1714680;82;21121;-77
2021/11/24 05:25:45;;;;;;;5.03;3.08;;;;;;;6.68;83.95;101551.80;1714539;83;22233;-76
2021/11/24 05:28:15;;;;;;;4.83;2.83;;;;;;;6.69;83.96;101554.89;1714648;83;21026;-76
2021/11/24 05:30:40;;;;;;;4.85;2.50;;;;;;;6.72;84.02;101561.98;1713874;83;21845;-79
2021/11/24 05:33:12;;;;;;;3.55;2.42;;;;;;;6.74;84.08;101556.04;1714590;83;21103;-82
2021/11/24 05:35:39;;;;;;;6.12;2.75;;;;;;;6.77;84.03;101553.98;1714059;83;21686;-81
2021/11/24 05:38:07;;;;;;;5.37;2.92;;;;;;;6.78;83.99;101558.00;1714815;83;21161;-77
2021/11/24 05:40:34;;;;;;;3.60;2.52;;;;;;;6.79;84.07;101561.12;1714650;82;22146;-80
2021/11/24 05:43:10;;;;;;;5.72;2.45;;;;;;;6.84;84.04;101557.84;1714836;83;21786;-84
2021/11/24 05:45:44;;;;;;;6.55;2.75;;;;;;;6.86;84.07;101558.40;1714518;83;21129;-84
2021/11/24 05:48:09;;;;;;;5.75;2.42;;;;;;;6.87;83.98;101560.59;1713570;83;21066;-81
2021/11/24 05:50:40;;;;;;;7.10;3.00;;;;;;;6.88;84.02;101565.92;1714051;83;21150;-80
2021/11/24 05:53:07;;;;;;;5.05;2.20;;;;;;;6.92;84.13;101557.83;1714755;83;21823;-82
2021/11/24 05:55:34;;;;;;;5.33;2.33;;;;;;;6.93;83.98;101557.91;1714937;82;21392;-82
2021/11/24 05:58:02;;;;;;;5.22;2.35;;;;;;;6.94;84.03;101549.64;1684077;83;21090;-81
2021/11/24 06:00:29;;;;;;;4.80;2.62;;;;;;;6.95;83.98;101551.03;1714911;83;21292;-80
2021/11/24 06:02:58;;;;;;;5.58;2.58;;;;;;;6.94;83.91;101549.22;1714778;83;21571;-80
2021/11/24 06:05:24;;;;;;;6.53;2.58;;;;;;;6.93;83.90;101552.67;1714425;83;21077;-80
2021/11/24 06:07:59;;;;;;;4.87;2.62;;;;;;;6.91;83.94;101553.01;1714682;83;21702;-79
2021/11/24 06:10:27;;;;;;;5.78;2.60;;;;;;;6.91;83.98;101554.73;1711669;82;21332;-80
2021/11/24 06:12:58;;;;;;;7.20;2.70;;;;;;;6.93;84.27;101557.91;1729040;82;21061;-80
2021/11/24 06:15:25;;;;;;;3.45;2.55;;;;;;;6.98;84.30;101547.28;1729950;82;21046;-80
2021/11/24 06:17:54;;;;;;;5.70;2.22;;;;;;;7.01;84.17;101546.53;1730650;82;21084;-80
2021/11/24 06:20:24;;;;;;;6.60;2.58;;;;;;;6.98;83.96;101548.59;1730302;82;21077;-80
2021/11/24 06:22:53;;;;;;;3.40;2.25;;;;;;;6.97;83.90;101547.20;1703468;82;21631;-80
2021/11/24 06:25:23;;;;;;;4.40;2.20;;;;;;;6.97;83.96;101538.03;1730819;82;21034;-80
2021/11/24 06:27:52;;;;;;;5.12;2.45;;;;;;;6.96;83.91;101546.69;1730699;82;21069;-80
2021/11/24 06:30:19;;;;;;;4.17;2.98;;;;;;;6.94;83.83;101547.02;1730836;82;21661;-81
2021/11/24 06:32:46;;;;;;;6.20;3.87;;;;;;;6.92;83.87;101552.59;1730919;82;21768;-81
2021/11/24 06:35:13;;;;;;;8.43;5.15;;;;;;;6.90;83.88;101562.97;1730709;82;21054;-80
2021/11/24 06:37:39;;;;;;;8.10;5.50;;;;;;;6.91;83.96;101560.86;1730825;82;21032;-80
2021/11/24 06:40:08;;;;;;;7.15;4.90;;;;;;;6.94;84.00;101564.92;1730814;82;21096;-79
2021/11/24 06:42:38;;;;;;;6.90;5.20;;;;;;;6.94;84.01;101563.62;1731145;82;21076;-80
2021/11/24 06:45:05;;;;;;;11.33;5.85;;;;;;;6.96;84.03;101560.70;1730341;82;21323;-79
2021/11/24 06:47:35;;;;;;;8.60;5.60;;;;;;;6.95;84.00;101560.20;1730960;82;21057;-80
2021/11/24 06:50:03;;;;;;;8.25;5.55;;;;;;;;;;1730977;82;21117;-80
2021/11/24 06:52:30;;;;;;;8.78;4.95;;;;;;;6.99;84.01;101569.11;1730858;82;21069;-79
2021/11/24 06:54:57;;;;;;;9.00;5.83;;;;;;;7.01;84.03;101573.59;1730953;82;21512;-80
2021/11/24 06:57:24;;;;;;;13.62;6.75;;;;;;;7.05;84.04;101576.39;1730940;82;22391;-80
2021/11/24 06:59:50;;;;;;;8.78;5.62;;;;;;;7.05;84.10;101569.42;1730626;82;21136;-80
2021/11/24 07:02:17;;;;;;;9.00;5.37;;;;;;;7.11;84.11;101572.77;1730888;82;21066;-80
2021/11/24 07:04:44;;;;;;;6.92;4.80;;;;;;;7.13;84.06;101580.30;1730860;82;21735;-80
2021/11/24 07:07:10;;;;;;;9.13;4.33;;;;;;;7.15;84.09;101578.66;1731027;82;21244;-80
2021/11/24 07:09:37;;;;;;;6.62;4.03;;;;;;;7.18;84.05;101580.13;1730783;82;21796;-80
2021/11/24 07:12:05;;;;;;;5.95;3.05;;;;;;;7.22;84.04;101581.19;1727277;82;21133;-80
2021/11/24 07:14:31;;;;;;;4.78;3.12;;;;;;;7.24;84.04;101589.61;1722786;83;21015;-80
2021/11/24 07:16:59;;;;;;;7.30;3.25;;;;;;;7.26;84.05;101597.13;1722926;83;21193;-80
2021/11/24 07:19:26;;;;;;;5.45;3.45;;;;;;;7.27;83.97;101596.74;1723131;83;21077;-80
2021/11/24 07:21:53;;;;;;;7.92;3.90;;;;;;;7.29;84.02;101599.03;1723008;83;21181;-80
2021/11/24 07:24:20;;;;;;;5.80;3.27;;;;;;;7.32;83.98;101603.09;1723103;83;21077;-80
2021/11/24 07:26:47;;;;;;;7.28;4.67;;;;;;;7.33;83.93;101602.29;1722991;83;21039;-80
2021/11/24 07:29:14;;;;;;;51.00;24.27;;;;;;;7.38;84.14;101598.20;1722987;82;21039;-80
2021/11/24 07:31:40;;;;;;;93.67;44.18;;;;;;;7.43;84.05;101604.97;1723204;83;21211;-80
2021/11/24 07:34:07;;;;;;;58.58;31.07;;;;;;;7.43;83.95;101604.97;1723160;83;21767;-80
2021/11/24 07:36:34;;;;;;;27.48;15.15;;;;;;;7.44;83.97;101599.81;1723079;83;21050;-80
2021/11/24 07:39:00;;;;;;;14.35;7.78;;;;;;;7.45;83.92;101596.77;1723131;83;21101;-80
2021/11/24 07:41:27;;;;;;;9.23;5.37;;;;;;;7.46;83.87;101596.86;1723170;83;21039;-75
2021/11/24 07:43:54;;;;;;;10.95;6.10;;;;;;;7.48;83.88;101598.25;1723183;83;21686;-80
2021/11/24 07:46:20;;;;;;;8.40;5.55;;;;;;;7.51;83.89;101598.00;1723224;82;21734;-80
2021/11/24 07:48:47;;;;;;;9.85;7.25;;;;;;;7.51;83.75;101599.73;1723290;82;21066;-80
2021/11/24 07:51:17;;;;;;;8.88;6.50;;;;;;;7.43;83.50;101598.00;1723411;82;21058;-80
2021/11/24 07:53:44;;;;;;;20.43;6.72;;;;;;;7.37;83.52;101598.58;1723306;83;21113;-80
2021/11/24 07:56:11;;;;;;;5.78;4.17;;;;;;;7.33;83.45;101601.88;1723546;83;21830;-80
2021/11/24 07:58:40;;;;;;;5.80;4.28;;;;;;;7.29;83.48;101597.72;1723239;83;22561;-80
2021/11/24 08:01:06;;;;;;;7.87;3.90;;;;;;;7.22;83.39;101601.72;1723168;83;21742;-79
2021/11/24 08:03:32;;;;;;;7.47;4.92;;;;;;;7.17;83.45;101608.43;1723361;83;21049;-80
2021/11/24 08:05:59;;;;;;;8.18;5.10;;;;;;;7.22;83.85;101605.66;1723282;83;21003;-80
2021/11/24 08:08:25;;;;;;;9.98;4.33;;;;;;;7.32;84.16;101598.78;1723424;83;21058;-80
2021/11/24 08:10:52;;;;;;;8.15;4.78;;;;;;;7.46;84.30;101604.72;1723354;83;21752;-80
2021/11/24 08:13:21;;;;;;;8.90;4.33;;;;;;;7.58;84.33;101595.27;1729609;82;21089;-80
2021/11/24 08:15:48;;;;;;;6.67;3.92;;;;;;;7.70;84.32;101597.62;1731078;82;21065;-80
2021/11/24 08:18:15;;;;;;;7.67;4.17;;;;;;;7.78;84.19;101601.09;1731187;82;21063;-79
2021/11/24 08:20:42;;;;;;;6.40;4.40;;;;;;;7.85;84.08;101601.42;1731137;82;21081;-80
2021/11/24 08:23:09;;;;;;;9.55;5.72;;;;;;;7.88;84.01;101597.23;1731143;82;21745;-80
2021/11/24 08:25:36;;;;;;;8.20;5.62;;;;;;;7.92;83.86;101591.70;1730905;82;21137;-80
2021/11/24 08:28:07;;;;;;;12.90;9.20;;;;;;;7.95;83.86;101594.06;1730960;82;21058;-80
2021/11/24 08:30:32;;;;;;;20.17;14.43;;;;;;;8.03;83.93;101590.92;1730207;82;21565;-79
2021/11/24 08:32:58;;;;;;;17.67;9.43;;;;;;;8.10;83.83;101587.78;1731032;82;21038;-80
2021/11/24 08:35:25;;;;;;;14.73;5.90;;;;;;;8.18;83.80;101587.73;1730855;82;21664;-80
2021/11/24 08:37:52;;;;;;;9.33;3.67;;;;;;;8.28;83.85;101588.67;1730793;82;21070;-80
2021/11/24 08:40:19;;;;;;;6.10;3.22;;;;;;;8.41;83.83;101598.03;1703531;82;21084;-79
2021/11/24 08:42:45;;;;;;;9.10;4.00;;;;;;;8.54;83.66;101590.36;1730795;82;21099;-79
2021/11/24 08:45:12;;;;;;;7.15;3.85;;;;;;;8.64;83.40;101591.69;1730642;82;21054;-80
2021/11/24 08:47:40;;;;;;;5.75;4.15;;;;;;;8.71;83.29;101590.72;1730716;82;21706;-79
2021/11/24 08:50:09;;;;;;;4.25;2.87;;;;;;;8.81;83.21;101592.45;1730804;82;21081;-80
2021/11/24 08:52:36;;;;;;;8.50;3.58;;;;;;;8.85;82.96;101596.59;1730730;82;21058;-80
2021/11/24 08:55:05;;;;;;;8.05;3.05;;;;;;;8.91;82.83;101596.86;1730719;82;21145;-80
2021/11/24 08:57:32;;;;;;;6.05;3.37;;;;;;;8.96;82.71;101594.45;1730830;82;21124;-80
2021/11/24 08:59:59;;;;;;;6.17;2.47;;;;;;;9.04;82.67;101600.05;1730828;82;21753;-79
2021/11/24 09:02:28;;;;;;;4.25;2.30;;;;;;;9.14;82.74;101597.91;1730775;82;21057;-80
2021/11/24 09:04:55;;;;;;;6.80;2.80;;;;;;;9.25;82.67;101597.08;1730679;82;21610;-80
2021/11/24 09:07:21;;;;;;;10.98;4.45;;;;;;;9.34;82.60;101592.62;1730871;82;21316;-80
2021/11/24 09:09:48;;;;;;;15.13;11.00;;;;;;;9.49;82.74;101584.50;1731047;82;21054;-80
2021/11/24 09:12:14;;;;;;;16.42;10.90;;;;;;;9.66;82.59;101576.02;1727412;82;21801;-80
2021/11/24 09:14:41;;;;;;;10.08;4.90;;;;;;;9.82;82.47;101579.77;1714974;83;21140;-80
2021/11/24 09:17:08;;;;;;;4.90;2.72;;;;;;;9.88;81.92;101582.64;1714803;83;21592;-80
2021/11/24 09:19:35;;;;;;;6.28;2.65;;;;;;;9.92;81.75;101580.61;1714946;83;21090;-80
2021/11/24 09:22:02;;;;;;;4.60;2.65;;;;;;;9.91;81.36;101582.78;1715159;83;21092;-80
2021/11/24 09:24:32;;;;;;;5.12;3.40;;;;;;;9.91;81.31;101588.47;1714965;83;21763;-80
2021/11/24 09:27:00;;;;;;;35.60;23.35;;;;;;;9.95;81.35;101586.83;1714480;83;21081;-80
2021/11/24 09:29:26;;;;;;;41.33;27.70;;;;;;;9.96;81.04;101579.44;1714853;83;21635;-80
2021/11/24 09:31:54;;;;;;;38.28;26.85;;;;;;;9.87;80.67;101576.92;1714840;83;21046;-80
2021/11/24 09:34:20;;;;;;;57.60;33.65;;;;;;;9.77;80.65;101582.62;1715036;83;21082;-81
2021/11/24 09:36:47;;;;;;;51.63;32.67;;;;;;;9.69;80.65;101578.36;1714803;83;21803;-80
2021/11/24 09:39:14;;;;;;;40.28;24.75;;;;;;;9.69;80.76;101578.78;1715032;83;21115;-80
2021/11/24 09:41:45;;;;;;;157.37;95.97;;;;;;;9.68;80.75;101576.97;1715081;83;21118;-80
2021/11/24 09:44:12;;;;;;;223.40;117.17;;;;;;;9.73;80.77;101577.64;1715082;83;21063;-80
2021/11/24 09:46:49;;;;;;;33.48;21.75;;;;;;;9.76;80.77;101584.78;1715083;83;21352;-80
2021/11/24 09:49:17;;;;;;;16.12;13.85;;;;;;;9.78;80.74;101585.74;1715200;83;21805;-80
2021/11/24 09:51:44;;;;;;;16.12;11.75;;;;;;;9.79;80.58;101580.06;1715007;82;21122;-80
2021/11/24 09:54:13;;;;;;;12.88;8.65;;;;;;;9.78;80.55;101579.56;1715064;83;21069;-80
2021/11/24 09:56:40;;;;;;;21.82;12.75;;;;;;;9.79;80.58;101575.69;1677000;83;21587;-80
2021/11/24 09:59:09;;;;;;;22.20;15.28;;;;;;;9.85;80.63;101573.73;1714990;83;21121;-80
2021/11/24 10:01:38;;;;;;;26.33;18.15;;;;;;;9.87;80.42;101576.00;1714750;82;22345;-80
2021/11/24 10:04:05;;;;;;;115.30;60.88;;;;;;;9.91;80.63;101572.27;1715227;83;21114;-80
2021/11/24 10:06:35;;;;;;;77.50;45.85;;;;;;;9.97;80.46;101574.24;1715350;83;21090;-80
2021/11/24 10:09:03;;;;;;;105.87;61.68;;;;;;;9.95;80.25;101569.34;1708773;83;21132;-80
2021/11/24 10:11:29;;;;;;;62.53;37.00;;;;;;;9.95;80.26;101568.42;1715331;83;21055;-80
2021/11/24 10:13:56;;;;;;;62.38;33.45;;;;;;;9.95;80.26;101567.11;1715026;82;21792;-80
2021/11/24 10:16:28;;;;;;;71.30;38.13;;;;;;;9.96;80.15;101563.23;1715327;83;21572;-80
2021/11/24 10:19:01;;;;;;;162.37;88.70;;;;;;;10.00;80.34;101566.88;1714931;83;21075;-80
2021/11/24 10:21:28;;;;;;;71.22;39.88;;;;;;;10.02;80.23;101566.13;1715127;83;21040;-80
2021/11/24 10:23:56;;;;;;;106.90;62.23;;;;;;;9.97;79.96;101561.52;1715170;83;21094;-80
2021/11/24 10:26:39;;;;;;;38.10;26.35;;;;;;;9.89;80.02;101560.78;1684255;83;21791;-80
2021/11/24 10:29:11;;;;;;;19.30;13.30;;;;;;;9.89;80.08;101556.84;1715087;83;21667;-80
2021/11/24 10:31:53;;;;;;;19.57;15.13;;;;;;;9.91;80.18;101555.17;1714988;83;21125;-80
2021/11/24 10:34:32;;;;;;;15.83;12.85;;;;;;;9.90;80.14;101556.41;1715098;83;21046;-80
2021/11/24 10:37:10;;;;;;;8.00;6.50;;;;;;;9.92;80.22;101553.00;1713816;83;21516;-80
2021/11/24 10:39:45;;;;;;;7.80;4.33;;;;;;;9.99;80.30;101555.48;1714218;83;21822;-80
2021/11/24 10:42:22;;;;;;;3.90;3.33;;;;;;;10.05;80.22;101554.83;1715139;83;21559;-80
2021/11/24 10:44:55;;;;;;;5.58;3.95;;;;;;;10.06;80.06;101554.89;1715053;83;21218;-80
2021/11/24 10:47:23;;;;;;;5.65;3.40;;;;;;;10.06;80.04;101549.63;1714146;83;21066;-80
2021/11/24 10:49:52;;;;;;;3.25;2.08;;;;;;;10.05;79.88;101553.51;1715304;83;22204;-80
2021/11/24 10:52:30;;;;;;;3.15;1.70;;;;;;;10.05;79.82;101550.88;1715321;83;21762;-81
2021/11/24 10:55:07;;;;;;;3.20;2.33;;;;;;;10.08;79.75;101547.06;1715081;83;21074;-80
2021/11/24 10:57:38;;;;;;;2.77;1.80;;;;;;;10.10;79.58;101545.39;1715096;83;21158;-81
2021/11/24 11:00:15;;;;;;;5.67;3.42;;;;;;;10.13;79.48;101550.75;1714133;82;21567;-81
2021/11/24 11:02:49;;;;;;;3.62;2.00;;;;;;;10.17;79.36;101550.03;1715079;83;21054;-81
2021/11/24 11:05:22;;;;;;;2.55;1.57;;;;;;;10.23;79.25;101541.09;1715324;83;21758;-81
2021/11/24 11:07:56;;;;;;;5.75;2.10;;;;;;;10.27;79.06;101545.63;1714948;83;21078;-81
2021/11/24 11:10:26;;;;;;;6.17;2.45;;;;;;;10.34;79.06;101539.30;1715124;83;21086;-81
2021/11/24 11:13:03;;;;;;;5.25;3.37;;;;;;;10.44;78.90;101546.31;1715391;82;21007;-81
2021/11/24 11:15:34;;;;;;;4.53;2.80;;;;;;;10.49;78.72;101543.44;1714787;83;21126;-81
2021/11/24 11:18:16;;;;;;;4.83;2.98;;;;;;;10.54;78.58;101539.66;1709634;83;21878;-81
2021/11/24 11:20:46;;;;;;;6.20;4.05;;;;;;;10.56;78.30;101532.70;1714945;83;21085;-81
2021/11/24 11:23:27;;;;;;;4.70;2.62;;;;;;;10.57;78.15;101533.62;1715035;83;21067;-81
2021/11/24 11:25:59;;;;;;;4.00;2.50;;;;;;;10.58;77.93;101533.66;1715329;83;21079;-81
2021/11/24 11:28:32;;;;;;;4.10;2.22;;;;;;;10.53;77.69;101534.32;1715235;83;21058;-81
2021/11/24 11:31:01;;;;;;;5.62;2.58;;;;;;;10.46;77.57;101538.05;1714876;83;21754;-81
2021/11/24 11:33:32;;;;;;;5.78;2.50;;;;;;;10.42;77.52;101538.77;1714938;83;21576;-81
2021/11/24 11:36:01;;;;;;;6.33;3.10;;;;;;;10.35;77.47;101535.42;1714851;83;21110;-81
2021/11/24 11:38:27;;;;;;;6.37;2.90;;;;;;;10.30;77.51;101531.31;1715237;82;21023;-81
2021/11/24 11:40:54;;;;;;;5.53;2.50;;;;;;;10.31;77.54;101529.14;1715372;83;21058;-78